sensor_id;sensor_type;location;lat;lon;timestamp;pressure;altitude;pressure_sealevel;temperature;humidity
6218;BME280;3142;48.206;11.550;2023-04-24T00:02:17;94852.28;;;13.65;76.36
6218;BME280;3142;48.206;11.550;2023-04-24T00:04:44;94857.38;;;13.55;76.96
6218;BME280;3142;48.206;11.550;2023-04-24T00:07:10;94844.25;;;13.55;77.15
6218;BME280;3142;48.206;11.550;2023-04-24T00:09:38;94846.63;;;13.56;77.03
6218;BME280;3142;48.206;11.550;2023-04-24T00:12:04;94838.75;;;13.56;77.42
6218;BME280;3142;48.206;11.550;2023-04-24T00:14:31;94842.41;;;13.55;76.22
6218;BME280;3142;48.206;11.550;2023-04-24T00:16:59;94840.56;;;13.56;76.47
6218;BME280;3142;48.206;11.550;2023-04-24T00:19:25;94838.44;;;13.53;76.84
6218;BME280;3142;48.206;11.550;2023-04-24T00:21:52;94841.84;;;13.53;76.53
6218;BME280;3142;48.206;11.550;2023-04-24T00:24:19;94840.69;;;13.44;76.54
6218;BME280;3142;48.206;11.550;2023-04-24T00:26:45;94840.56;;;13.39;75.77
6218;BME280;3142;48.206;11.550;2023-04-24T00:29:12;94849.31;;;13.28;76.61
6218;BME280;3142;48.206;11.550;2023-04-24T00:31:38;94844.00;;;13.23;76.26
6218;BME280;3142;48.206;11.550;2023-04-24T00:34:07;94844.00;;;13.23;76.29
6218;BME280;3142;48.206;11.550;2023-04-24T00:36:33;94841.91;;;13.25;77.13
6218;BME280;3142;48.206;11.550;2023-04-24T00:39:00;94845.81;;;13.22;76.73
6218;BME280;3142;48.206;11.550;2023-04-24T00:41:27;94850.28;;;13.22;75.62
6218;BME280;3142;48.206;11.550;2023-04-24T00:43:54;94841.25;;;13.18;76.48
6218;BME280;3142;48.206;11.550;2023-04-24T00:46:20;94845.59;;;13.12;75.94
6218;BME280;3142;48.206;11.550;2023-04-24T00:48:47;94840.84;;;13.09;75.53
6218;BME280;3142;48.206;11.550;2023-04-24T00:51:15;94845.53;;;13.07;76.06
6218;BME280;3142;48.206;11.550;2023-04-24T00:53:41;94853.66;;;13.05;75.66
6218;BME280;3142;48.206;11.550;2023-04-24T00:56:07;94848.75;;;12.97;75.38
6218;BME280;3142;48.206;11.550;2023-04-24T00:58:34;94846.94;;;12.98;75.27
6218;BME280;3142;48.206;11.550;2023-04-24T01:01:01;94844.56;;;12.96;75.32
6218;BME280;3142;48.206;11.550;2023-04-24T01:03:33;94841.22;;;13.01;76.07
6218;BME280;3142;48.206;11.550;2023-04-24T01:05:59;94844.19;;;13.04;75.61
6218;BME280;3142;48.206;11.550;2023-04-24T01:08:28;94839.25;;;13.08;75.41
6218;BME280;3142;48.206;11.550;2023-04-24T01:10:55;94839.16;;;13.03;75.37
6218;BME280;3142;48.206;11.550;2023-04-24T01:13:23;94841.78;;;13.03;75.40
6218;BME280;3142;48.206;11.550;2023-04-24T01:15:49;94835.41;;;12.99;73.98
6218;BME280;3142;48.206;11.550;2023-04-24T01:18:16;94843.75;;;12.96;74.12
6218;BME280;3142;48.206;11.550;2023-04-24T01:20:44;94835.31;;;12.94;74.51
6218;BME280;3142;48.206;11.550;2023-04-24T01:23:13;94837.88;;;12.89;73.92
6218;BME280;3142;48.206;11.550;2023-04-24T01:25:40;94830.44;;;12.86;73.62
6218;BME280;3142;48.206;11.550;2023-04-24T01:28:06;94823.50;;;12.80;73.32
6218;BME280;3142;48.206;11.550;2023-04-24T01:30:33;94826.47;;;12.83;74.07
6218;BME280;3142;48.206;11.550;2023-04-24T01:33:00;94823.19;;;12.76;73.51
6218;BME280;3142;48.206;11.550;2023-04-24T01:35:27;94818.06;;;12.69;74.05
6218;BME280;3142;48.206;11.550;2023-04-24T01:37:54;94820.63;;;12.64;74.62
6218;BME280;3142;48.206;11.550;2023-04-24T01:40:22;94822.75;;;12.67;74.33
6218;BME280;3142;48.206;11.550;2023-04-24T01:42:48;94812.03;;;12.69;74.34
6218;BME280;3142;48.206;11.550;2023-04-24T01:45:15;94816.81;;;12.72;73.93
6218;BME280;3142;48.206;11.550;2023-04-24T01:47:41;94819.44;;;12.72;73.38
6218;BME280;3142;48.206;11.550;2023-04-24T01:50:09;94821.72;;;12.68;74.11
6218;BME280;3142;48.206;11.550;2023-04-24T01:52:35;94819.03;;;12.63;73.83
6218;BME280;3142;48.206;11.550;2023-04-24T01:55:02;94820.38;;;12.66;73.45
6218;BME280;3142;48.206;11.550;2023-04-24T01:57:31;94820.13;;;12.67;73.99
6218;BME280;3142;48.206;11.550;2023-04-24T01:59:59;94808.84;;;12.67;73.53
6218;BME280;3142;48.206;11.550;2023-04-24T02:02:26;94818.91;;;12.58;73.23
6218;BME280;3142;48.206;11.550;2023-04-24T02:04:53;94814.44;;;12.59;73.60
6218;BME280;3142;48.206;11.550;2023-04-24T02:07:20;94818.34;;;12.56;74.24
6218;BME280;3142;48.206;11.550;2023-04-24T02:09:46;94815.63;;;12.51;73.78
6218;BME280;3142;48.206;11.550;2023-04-24T02:12:13;94823.03;;;12.54;74.08
6218;BME280;3142;48.206;11.550;2023-04-24T02:14:41;94821.22;;;12.55;74.03
6218;BME280;3142;48.206;11.550;2023-04-24T02:17:08;94824.19;;;12.46;73.51
6218;BME280;3142;48.206;11.550;2023-04-24T02:19:35;94830.13;;;12.42;73.54
6218;BME280;3142;48.206;11.550;2023-04-24T02:22:01;94820.03;;;12.34;73.71
6218;BME280;3142;48.206;11.550;2023-04-24T02:24:27;94813.75;;;12.35;74.14
6218;BME280;3142;48.206;11.550;2023-04-24T02:26:54;94814.31;;;12.37;73.20
6218;BME280;3142;48.206;11.550;2023-04-24T02:29:20;94812.03;;;12.29;73.71
6218;BME280;3142;48.206;11.550;2023-04-24T02:31:49;94818.66;;;12.31;73.26
6218;BME280;3142;48.206;11.550;2023-04-24T02:34:15;94822.44;;;12.24;74.03
6218;BME280;3142;48.206;11.550;2023-04-24T02:36:42;94816.16;;;12.25;73.62
6218;BME280;3142;48.206;11.550;2023-04-24T02:39:08;94818.00;;;12.24;74.21
6218;BME280;3142;48.206;11.550;2023-04-24T02:41:35;94821.50;;;12.30;73.64
6218;BME280;3142;48.206;11.550;2023-04-24T02:44:02;94823.00;;;12.26;73.52
6218;BME280;3142;48.206;11.550;2023-04-24T02:46:28;94815.69;;;12.28;73.51
6218;BME280;3142;48.206;11.550;2023-04-24T02:48:56;94821.97;;;12.27;74.84
6218;BME280;3142;48.206;11.550;2023-04-24T02:51:22;94820.38;;;12.26;74.27
6218;BME280;3142;48.206;11.550;2023-04-24T02:53:49;94818.09;;;12.29;73.87
6218;BME280;3142;48.206;11.550;2023-04-24T02:56:15;94813.88;;;12.28;73.72
6218;BME280;3142;48.206;11.550;2023-04-24T02:58:41;94821.50;;;12.30;74.77
6218;BME280;3142;48.206;11.550;2023-04-24T03:01:08;94829.16;;;12.20;74.82
6218;BME280;3142;48.206;11.550;2023-04-24T03:03:35;94817.88;;;12.19;75.33
6218;BME280;3142;48.206;11.550;2023-04-24T03:06:03;94815.59;;;12.23;75.17
6218;BME280;3142;48.206;11.550;2023-04-24T03:08:30;94812.50;;;12.26;75.17
6218;BME280;3142;48.206;11.550;2023-04-24T03:10:57;94813.53;;;12.25;74.64
6218;BME280;3142;48.206;11.550;2023-04-24T03:13:23;94816.16;;;12.25;74.43
6218;BME280;3142;48.206;11.550;2023-04-24T03:15:50;94811.38;;;12.22;75.21
6218;BME280;3142;48.206;11.550;2023-04-24T03:18:16;94811.50;;;12.15;75.39
6218;BME280;3142;48.206;11.550;2023-04-24T03:20:45;94824.16;;;12.18;75.82
6218;BME280;3142;48.206;11.550;2023-04-24T03:23:13;94817.06;;;12.19;75.53
6218;BME280;3142;48.206;11.550;2023-04-24T03:25:39;94823.16;;;12.07;75.81
6218;BME280;3142;48.206;11.550;2023-04-24T03:28:06;94815.06;;;12.09;76.22
6218;BME280;3142;48.206;11.550;2023-04-24T03:30:32;94823.16;;;12.07;76.26
6218;BME280;3142;48.206;11.550;2023-04-24T03:32:58;94814.69;;;12.05;77.43
6218;BME280;3142;48.206;11.550;2023-04-24T03:35:25;94820.88;;;11.99;77.35
6218;BME280;3142;48.206;11.550;2023-04-24T03:37:51;94821.00;;;11.93;77.49
6218;BME280;3142;48.206;11.550;2023-04-24T03:40:19;94825.44;;;11.92;78.47
6218;BME280;3142;48.206;11.550;2023-04-24T03:42:46;94825.66;;;11.91;77.95
6218;BME280;3142;48.206;11.550;2023-04-24T03:45:12;94827.97;;;11.87;78.17
6218;BME280;3142;48.206;11.550;2023-04-24T03:47:38;94831.13;;;11.89;79.45
6218;BME280;3142;48.206;11.550;2023-04-24T03:50:05;94817.38;;;11.82;79.05
6218;BME280;3142;48.206;11.550;2023-04-24T03:52:32;94821.13;;;11.86;79.66
6218;BME280;3142;48.206;11.550;2023-04-24T03:54:58;94819.44;;;11.80;79.42
6218;BME280;3142;48.206;11.550;2023-04-24T03:57:26;94815.06;;;11.74;79.55
6218;BME280;3142;48.206;11.550;2023-04-24T03:59:52;94808.47;;;11.83;79.65
6218;BME280;3142;48.206;11.550;2023-04-24T04:02:19;94805.16;;;11.88;79.08
6218;BME280;3142;48.206;11.550;2023-04-24T04:04:46;94807.91;;;11.81;79.19
6218;BME280;3142;48.206;11.550;2023-04-24T04:07:12;94810.78;;;11.79;79.00
6218;BME280;3142;48.206;11.550;2023-04-24T04:09:39;94804.56;;;11.74;79.48
6218;BME280;3142;48.206;11.550;2023-04-24T04:12:05;94802.97;;;11.73;79.95
6218;BME280;3142;48.206;11.550;2023-04-24T04:14:33;94799.56;;;11.72;79.99
6218;BME280;3142;48.206;11.550;2023-04-24T04:16:59;94800.47;;;11.78;79.37
6218;BME280;3142;48.206;11.550;2023-04-24T04:19:26;94805.69;;;11.78;80.26
6218;BME280;3142;48.206;11.550;2023-04-24T04:21:52;94811.16;;;11.76;80.06
6218;BME280;3142;48.206;11.550;2023-04-24T04:24:21;94810.38;;;11.76;79.52
6218;BME280;3142;48.206;11.550;2023-04-24T04:26:49;94810.75;;;11.68;79.57
6218;BME280;3142;48.206;11.550;2023-04-24T04:29:16;94809.72;;;11.69;79.99
6218;BME280;3142;48.206;11.550;2023-04-24T04:31:44;94806.06;;;11.70;78.83
6218;BME280;3142;48.206;11.550;2023-04-24T04:34:10;94818.59;;;11.68;79.63
6218;BME280;3142;48.206;11.550;2023-04-24T04:36:37;94818.03;;;11.66;79.21
6218;BME280;3142;48.206;11.550;2023-04-24T04:39:05;94815.97;;;11.68;79.07
6218;BME280;3142;48.206;11.550;2023-04-24T04:41:31;94827.50;;;11.67;79.87
6218;BME280;3142;48.206;11.550;2023-04-24T04:44:00;94826.22;;;11.69;79.70
6218;BME280;3142;48.206;11.550;2023-04-24T04:46:27;94823.28;;;11.66;79.13
6218;BME280;3142;48.206;11.550;2023-04-24T04:48:59;94827.50;;;11.67;80.01
6218;BME280;3142;48.206;11.550;2023-04-24T04:51:25;94830.66;;;11.69;79.83
6218;BME280;3142;48.206;11.550;2023-04-24T04:53:52;94834.66;;;11.71;79.25
6218;BME280;3142;48.206;11.550;2023-04-24T04:56:18;94833.97;;;11.76;79.08
6218;BME280;3142;48.206;11.550;2023-04-24T04:58:45;94840.97;;;11.82;78.96
6218;BME280;3142;48.206;11.550;2023-04-24T05:01:11;94839.91;;;11.71;78.79
6218;BME280;3142;48.206;11.550;2023-04-24T05:03:37;94842.41;;;11.66;79.35
6218;BME280;3142;48.206;11.550;2023-04-24T05:06:06;94838.19;;;11.65;78.88
6218;BME280;3142;48.206;11.550;2023-04-24T05:08:32;94833.28;;;11.69;79.05
6218;BME280;3142;48.206;11.550;2023-04-24T05:10:59;94850.94;;;11.73;78.66
6218;BME280;3142;48.206;11.550;2023-04-24T05:13:25;94843.88;;;11.74;78.71
6218;BME280;3142;48.206;11.550;2023-04-24T05:15:51;94849.13;;;11.74;78.85
6218;BME280;3142;48.206;11.550;2023-04-24T05:18:18;94851.19;;;11.72;78.56
6218;BME280;3142;48.206;11.550;2023-04-24T05:20:44;94850.16;;;11.73;79.05
6218;BME280;3142;48.206;11.550;2023-04-24T05:23:12;94853.34;;;11.75;78.01
6218;BME280;3142;48.206;11.550;2023-04-24T05:25:38;94856.28;;;11.78;77.73
6218;BME280;3142;48.206;11.550;2023-04-24T05:28:06;94854.81;;;11.71;78.07
6218;BME280;3142;48.206;11.550;2023-04-24T05:30:33;94856.97;;;11.74;77.94
6218;BME280;3142;48.206;11.550;2023-04-24T05:32:59;94855.16;;;11.74;78.55
6218;BME280;3142;48.206;11.550;2023-04-24T05:35:26;94856.88;;;11.69;78.00
6218;BME280;3142;48.206;11.550;2023-04-24T05:37:52;94859.03;;;11.72;77.42
6218;BME280;3142;48.206;11.550;2023-04-24T05:40:20;94855.63;;;11.71;77.66
6218;BME280;3142;48.206;11.550;2023-04-24T05:42:46;94862.78;;;11.76;77.18
6218;BME280;3142;48.206;11.550;2023-04-24T05:45:12;94858.75;;;11.80;76.84
6218;BME280;3142;48.206;11.550;2023-04-24T05:47:41;94853.38;;;11.86;75.71
6218;BME280;3142;48.206;11.550;2023-04-24T05:50:09;94863.53;;;11.83;75.91
6218;BME280;3142;48.206;11.550;2023-04-24T05:52:35;94865.56;;;11.81;76.29
6218;BME280;3142;48.206;11.550;2023-04-24T05:55:02;94864.16;;;11.78;76.03
6218;BME280;3142;48.206;11.550;2023-04-24T05:57:30;94868.59;;;11.78;76.71
6218;BME280;3142;48.206;11.550;2023-04-24T05:59:56;94863.75;;;11.81;75.98
6218;BME280;3142;48.206;11.550;2023-04-24T06:02:23;94863.53;;;11.83;75.86
6218;BME280;3142;48.206;11.550;2023-04-24T06:04:49;94879.00;;;11.84;76.61
6218;BME280;3142;48.206;11.550;2023-04-24T06:07:15;94873.31;;;11.88;75.97
6218;BME280;3142;48.206;11.550;2023-04-24T06:09:42;94875.22;;;11.92;75.94
6218;BME280;3142;48.206;11.550;2023-04-24T06:12:09;94872.41;;;11.94;76.07
6218;BME280;3142;48.206;11.550;2023-04-24T06:14:36;94864.75;;;12.04;75.38
6218;BME280;3142;48.206;11.550;2023-04-24T06:17:03;94871.81;;;12.15;75.17
6218;BME280;3142;48.206;11.550;2023-04-24T06:19:29;94876.72;;;12.23;74.95
6218;BME280;3142;48.206;11.550;2023-04-24T06:21:56;94876.59;;;12.30;74.56
6218;BME280;3142;48.206;11.550;2023-04-24T06:24:22;94875.56;;;12.31;74.72
6218;BME280;3142;48.206;11.550;2023-04-24T06:26:48;94874.53;;;12.32;73.90
6218;BME280;3142;48.206;11.550;2023-04-24T06:29:16;94882.84;;;12.29;74.02
6218;BME280;3142;48.206;11.550;2023-04-24T06:31:43;94875.69;;;12.24;73.78
6218;BME280;3142;48.206;11.550;2023-04-24T06:34:10;94880.00;;;12.30;73.31
6218;BME280;3142;48.206;11.550;2023-04-24T06:36:36;94878.53;;;12.34;74.62
6218;BME280;3142;48.206;11.550;2023-04-24T06:39:03;94879.31;;;12.35;74.55
6218;BME280;3142;48.206;11.550;2023-04-24T06:41:30;94884.78;;;12.33;74.57
6218;BME280;3142;48.206;11.550;2023-04-24T06:43:56;94880.91;;;12.36;74.10
6218;BME280;3142;48.206;11.550;2023-04-24T06:46:23;94886.94;;;12.48;74.12
6218;BME280;3142;48.206;11.550;2023-04-24T06:48:52;94880.53;;;12.56;73.65
6218;BME280;3142;48.206;11.550;2023-04-24T06:51:21;94889.19;;;12.56;72.79
6218;BME280;3142;48.206;11.550;2023-04-24T06:53:48;94892.25;;;12.65;72.33
6218;BME280;3142;48.206;11.550;2023-04-24T06:56:15;94900.56;;;12.73;71.23
6218;BME280;3142;48.206;11.550;2023-04-24T06:58:41;94903.97;;;12.74;70.15
6218;BME280;3142;48.206;11.550;2023-04-24T07:01:08;94889.25;;;12.73;69.83
6218;BME280;3142;48.206;11.550;2023-04-24T07:03:34;94895.78;;;12.70;70.99
6218;BME280;3142;48.206;11.550;2023-04-24T07:06:02;94891.09;;;12.72;71.50
6218;BME280;3142;48.206;11.550;2023-04-24T07:08:29;94889.22;;;12.85;70.16
6218;BME280;3142;48.206;11.550;2023-04-24T07:10:57;94891.78;;;13.08;70.04
6218;BME280;3142;48.206;11.550;2023-04-24T07:13:23;94892.06;;;13.23;68.64
6218;BME280;3142;48.206;11.550;2023-04-24T07:15:50;94895.00;;;13.27;69.28
6218;BME280;3142;48.206;11.550;2023-04-24T07:18:19;94893.06;;;13.34;69.59
6218;BME280;3142;48.206;11.550;2023-04-24T07:20:45;94893.28;;;13.32;69.17
6218;BME280;3142;48.206;11.550;2023-04-24T07:23:13;94890.56;;;13.27;68.90
6218;BME280;3142;48.206;11.550;2023-04-24T07:25:39;94910.00;;;13.15;68.61
6218;BME280;3142;48.206;11.550;2023-04-24T07:28:05;94911.28;;;13.12;68.04
6218;BME280;3142;48.206;11.550;2023-04-24T07:30:32;94905.13;;;13.07;68.36
6218;BME280;3142;48.206;11.550;2023-04-24T07:32:58;94928.31;;;13.10;68.86
6218;BME280;3142;48.206;11.550;2023-04-24T07:35:25;94914.38;;;13.09;68.21
6218;BME280;3142;48.206;11.550;2023-04-24T07:37:52;94913.09;;;13.23;68.04
6218;BME280;3142;48.206;11.550;2023-04-24T07:40:21;94912.53;;;13.21;68.10
6218;BME280;3142;48.206;11.550;2023-04-24T07:42:47;94913.00;;;13.18;68.64
6218;BME280;3142;48.206;11.550;2023-04-24T07:45:14;94923.28;;;13.20;68.67
6218;BME280;3142;48.206;11.550;2023-04-24T07:47:41;94921.28;;;13.15;67.17
6218;BME280;3142;48.206;11.550;2023-04-24T07:50:09;94916.19;;;13.09;67.78
6218;BME280;3142;48.206;11.550;2023-04-24T07:52:36;94926.63;;;13.03;68.38
6218;BME280;3142;48.206;11.550;2023-04-24T07:55:03;94924.22;;;13.02;68.74
6218;BME280;3142;48.206;11.550;2023-04-24T07:57:31;94924.31;;;13.07;68.43
6218;BME280;3142;48.206;11.550;2023-04-24T07:59:57;94928.38;;;13.15;68.01
6218;BME280;3142;48.206;11.550;2023-04-24T08:02:24;94941.75;;;13.25;67.59
6218;BME280;3142;48.206;11.550;2023-04-24T08:04:52;94943.81;;;13.23;67.30
6218;BME280;3142;48.206;11.550;2023-04-24T08:07:19;94928.53;;;13.20;66.66
6218;BME280;3142;48.206;11.550;2023-04-24T08:09:46;94932.19;;;13.19;67.97
6218;BME280;3142;48.206;11.550;2023-04-24T08:12:12;94933.53;;;13.21;67.51
6218;BME280;3142;48.206;11.550;2023-04-24T08:14:40;94931.94;;;13.20;68.21
6218;BME280;3142;48.206;11.550;2023-04-24T08:17:07;94936.97;;;13.10;67.64
6218;BME280;3142;48.206;11.550;2023-04-24T08:19:33;94929.25;;;13.03;68.69
6218;BME280;3142;48.206;11.550;2023-04-24T08:22:00;94940.59;;;12.92;68.46
6218;BME280;3142;48.206;11.550;2023-04-24T08:24:26;94939.31;;;12.95;68.31
6218;BME280;3142;48.206;11.550;2023-04-24T08:26:52;94945.59;;;12.94;68.67
6218;BME280;3142;48.206;11.550;2023-04-24T08:29:21;94948.47;;;12.92;68.18
6218;BME280;3142;48.206;11.550;2023-04-24T08:31:49;94956.00;;;12.89;68.85
6218;BME280;3142;48.206;11.550;2023-04-24T08:34:16;94964.56;;;12.84;68.54
6218;BME280;3142;48.206;11.550;2023-04-24T08:36:42;94968.22;;;12.83;69.08
6218;BME280;3142;48.206;11.550;2023-04-24T08:39:09;94979.41;;;12.79;69.34
6218;BME280;3142;48.206;11.550;2023-04-24T08:41:36;94973.63;;;12.65;70.27
6218;BME280;3142;48.206;11.550;2023-04-24T08:44:03;94974.88;;;12.62;68.83
6218;BME280;3142;48.206;11.550;2023-04-24T08:46:30;94981.81;;;12.68;68.42
6218;BME280;3142;48.206;11.550;2023-04-24T08:48:58;94982.28;;;12.77;68.18
6218;BME280;3142;48.206;11.550;2023-04-24T08:51:26;94987.84;;;12.81;68.00
6218;BME280;3142;48.206;11.550;2023-04-24T08:53:53;94977.22;;;12.87;66.26
6218;BME280;3142;48.206;11.550;2023-04-24T08:56:21;94987.94;;;12.86;64.52
6218;BME280;3142;48.206;11.550;2023-04-24T08:58:50;94989.09;;;12.90;63.11
6218;BME280;3142;48.206;11.550;2023-04-24T09:01:16;94987.84;;;12.92;63.11
6218;BME280;3142;48.206;11.550;2023-04-24T09:03:44;95001.75;;;12.93;61.93
6218;BME280;3142;48.206;11.550;2023-04-24T09:06:12;95008.28;;;12.79;61.97
6218;BME280;3142;48.206;11.550;2023-04-24T09:08:40;94999.06;;;12.76;60.75
6218;BME280;3142;48.206;11.550;2023-04-24T09:11:07;94996.31;;;12.71;60.40
6218;BME280;3142;48.206;11.550;2023-04-24T09:13:34;94987.16;;;12.73;61.16
6218;BME280;3142;48.206;11.550;2023-04-24T09:16:01;94991.50;;;12.80;60.10
6218;BME280;3142;48.206;11.550;2023-04-24T09:18:27;94991.28;;;12.81;58.98
6218;BME280;3142;48.206;11.550;2023-04-24T09:20:57;94998.34;;;12.92;59.21
6218;BME280;3142;48.206;11.550;2023-04-24T09:23:27;94993.88;;;13.04;59.35
6218;BME280;3142;48.206;11.550;2023-04-24T09:25:55;94999.22;;;13.10;58.32
6218;BME280;3142;48.206;11.550;2023-04-24T09:28:26;94997.94;;;13.12;58.43
6218;BME280;3142;48.206;11.550;2023-04-24T09:31:02;95011.19;;;13.17;58.25
6218;BME280;3142;48.206;11.550;2023-04-24T09:33:29;94997.94;;;13.24;58.66
6218;BME280;3142;48.206;11.550;2023-04-24T09:35:55;95004.19;;;13.34;58.88
6218;BME280;3142;48.206;11.550;2023-04-24T09:38:32;94997.66;;;13.37;57.99
6218;BME280;3142;48.206;11.550;2023-04-24T09:41:00;95004.72;;;13.48;58.14
6218;BME280;3142;48.206;11.550;2023-04-24T09:43:27;94996.44;;;13.56;57.00
6218;BME280;3142;48.206;11.550;2023-04-24T09:45:55;94994.72;;;13.62;56.55
6218;BME280;3142;48.206;11.550;2023-04-24T09:48:29;94997.78;;;13.71;56.74
6218;BME280;3142;48.206;11.550;2023-04-24T09:50:56;94999.28;;;13.83;55.97
6218;BME280;3142;48.206;11.550;2023-04-24T09:53:24;94997.25;;;14.02;56.43
6218;BME280;3142;48.206;11.550;2023-04-24T09:55:52;94994.38;;;14.04;54.70
6218;BME280;3142;48.206;11.550;2023-04-24T09:58:18;94993.94;;;13.95;55.09
6218;BME280;3142;48.206;11.550;2023-04-24T10:00:53;95005.69;;;14.04;54.80
6218;BME280;3142;48.206;11.550;2023-04-24T10:03:20;94992.59;;;14.09;56.36
6218;BME280;3142;48.206;11.550;2023-04-24T10:05:47;94988.16;;;14.27;55.92
6218;BME280;3142;48.206;11.550;2023-04-24T10:08:13;94987.03;;;14.56;55.45
6218;BME280;3142;48.206;11.550;2023-04-24T10:10:41;94986.69;;;14.69;53.88
6218;BME280;3142;48.206;11.550;2023-04-24T10:13:11;94999.53;;;14.82;54.26
6218;BME280;3142;48.206;11.550;2023-04-24T10:15:38;94997.94;;;14.81;53.78
6218;BME280;3142;48.206;11.550;2023-04-24T10:18:05;94995.34;;;14.87;53.87
6218;BME280;3142;48.206;11.550;2023-04-24T10:20:33;94990.88;;;14.87;53.61
6218;BME280;3142;48.206;11.550;2023-04-24T10:23:00;94985.22;;;14.78;54.31
6218;BME280;3142;48.206;11.550;2023-04-24T10:25:27;94981.53;;;14.96;54.35
6218;BME280;3142;48.206;11.550;2023-04-24T10:27:55;94987.81;;;15.17;54.00
6218;BME280;3142;48.206;11.550;2023-04-24T10:30:27;94987.41;;;15.25;53.24
6218;BME280;3142;48.206;11.550;2023-04-24T10:32:54;94994.03;;;15.55;53.39
6218;BME280;3142;48.206;11.550;2023-04-24T10:35:21;94982.09;;;15.69;53.26
6218;BME280;3142;48.206;11.550;2023-04-24T10:37:55;94978.09;;;15.45;52.87
6218;BME280;3142;48.206;11.550;2023-04-24T10:40:26;94974.88;;;15.16;53.99
6218;BME280;3142;48.206;11.550;2023-04-24T10:42:52;94976.50;;;14.95;55.35
6218;BME280;3142;48.206;11.550;2023-04-24T10:45:20;94995.66;;;14.90;54.52
6218;BME280;3142;48.206;11.550;2023-04-24T10:47:53;94993.72;;;14.64;55.46
6218;BME280;3142;48.206;11.550;2023-04-24T10:50:20;95026.09;;;14.31;56.65
6218;BME280;3142;48.206;11.550;2023-04-24T10:52:47;95061.31;;;13.68;62.15
6218;BME280;3142;48.206;11.550;2023-04-24T10:55:15;95052.41;;;13.17;64.79
6218;BME280;3142;48.206;11.550;2023-04-24T10:58:03;95050.63;;;12.82;66.44
6218;BME280;3142;48.206;11.550;2023-04-24T11:00:30;95048.47;;;12.67;67.74
6218;BME280;3142;48.206;11.550;2023-04-24T11:02:58;95038.06;;;12.61;69.08
6218;BME280;3142;48.206;11.550;2023-04-24T11:05:48;95025.31;;;12.64;67.66
6218;BME280;3142;48.206;11.550;2023-04-24T11:08:22;95027.25;;;12.69;67.38
6218;BME280;3142;48.206;11.550;2023-04-24T11:10:55;95024.84;;;12.67;67.88
6218;BME280;3142;48.206;11.550;2023-04-24T11:13:22;95016.16;;;12.79;67.44
6218;BME280;3142;48.206;11.550;2023-04-24T11:16:13;95020.69;;;13.18;66.39
6218;BME280;3142;48.206;11.550;2023-04-24T11:18:42;95016.31;;;13.81;64.45
6218;BME280;3142;48.206;11.550;2023-04-24T11:21:11;95018.16;;;14.98;60.62
6218;BME280;3142;48.206;11.550;2023-04-24T11:23:38;95012.75;;;15.53;59.75
6218;BME280;3142;48.206;11.550;2023-04-24T11:26:10;95017.44;;;15.24;59.61
6218;BME280;3142;48.206;11.550;2023-04-24T11:28:37;95019.75;;;14.99;60.57
6218;BME280;3142;48.206;11.550;2023-04-24T11:34:13;95021.34;;;15.22;60.31
6218;BME280;3142;48.206;11.550;2023-04-24T11:36:40;95032.00;;;15.10;59.72
6218;BME280;3142;48.206;11.550;2023-04-24T11:39:08;95025.00;;;15.21;60.05
6218;BME280;3142;48.206;11.550;2023-04-24T11:41:35;95020.16;;;15.34;57.49
6218;BME280;3142;48.206;11.550;2023-04-24T11:44:03;95027.91;;;15.19;58.46
6218;BME280;3142;48.206;11.550;2023-04-24T11:46:31;95026.94;;;15.25;57.29
6218;BME280;3142;48.206;11.550;2023-04-24T11:48:59;95020.88;;;15.74;56.20
6218;BME280;3142;48.206;11.550;2023-04-24T11:51:27;95016.09;;;16.24;54.75
6218;BME280;3142;48.206;11.550;2023-04-24T11:53:54;95010.63;;;16.68;52.43
6218;BME280;3142;48.206;11.550;2023-04-24T11:56:21;95014.38;;;16.72;51.97
6218;BME280;3142;48.206;11.550;2023-04-24T11:58:48;95002.56;;;16.53;52.66
6218;BME280;3142;48.206;11.550;2023-04-24T12:01:14;95011.03;;;16.55;52.32
6218;BME280;3142;48.206;11.550;2023-04-24T12:03:41;95008.75;;;16.32;52.64
6218;BME280;3142;48.206;11.550;2023-04-24T12:06:10;95009.31;;;16.34;53.39
6218;BME280;3142;48.206;11.550;2023-04-24T12:08:38;95009.91;;;16.14;53.31
6218;BME280;3142;48.206;11.550;2023-04-24T12:11:05;94996.31;;;15.95;53.03
6218;BME280;3142;48.206;11.550;2023-04-24T12:13:33;95004.22;;;15.68;53.58
6218;BME280;3142;48.206;11.550;2023-04-24T12:16:01;95004.22;;;15.68;53.53
6218;BME280;3142;48.206;11.550;2023-04-24T12:18:28;94992.19;;;15.55;53.46
6218;BME280;3142;48.206;11.550;2023-04-24T12:20:54;94997.19;;;15.52;54.03
6218;BME280;3142;48.206;11.550;2023-04-24T12:23:33;94992.38;;;15.49;53.96
6218;BME280;3142;48.206;11.550;2023-04-24T12:26:03;95002.03;;;15.60;53.14
6218;BME280;3142;48.206;11.550;2023-04-24T12:28:34;94986.66;;;15.79;51.45
6218;BME280;3142;48.206;11.550;2023-04-24T12:31:01;94988.59;;;15.88;51.65
6218;BME280;3142;48.206;11.550;2023-04-24T12:33:32;94984.44;;;15.97;50.93
6218;BME280;3142;48.206;11.550;2023-04-24T12:35:59;94993.53;;;16.12;50.91
6218;BME280;3142;48.206;11.550;2023-04-24T12:38:27;94978.34;;;16.24;50.19
6218;BME280;3142;48.206;11.550;2023-04-24T12:41:03;94982.28;;;16.21;50.30
6218;BME280;3142;48.206;11.550;2023-04-24T12:43:30;94975.25;;;16.37;49.07
6218;BME280;3142;48.206;11.550;2023-04-24T12:45:57;94981.06;;;16.34;49.55
6218;BME280;3142;48.206;11.550;2023-04-24T12:48:24;94978.72;;;16.43;49.81
6218;BME280;3142;48.206;11.550;2023-04-24T12:50:50;94978.47;;;16.44;49.17
6218;BME280;3142;48.206;11.550;2023-04-24T12:53:17;94990.06;;;16.43;48.12
6218;BME280;3142;48.206;11.550;2023-04-24T12:55:44;94984.84;;;16.11;47.21
6218;BME280;3142;48.206;11.550;2023-04-24T12:58:13;94991.44;;;15.82;48.49
6218;BME280;3142;48.206;11.550;2023-04-24T13:00:39;94993.75;;;15.51;47.57
6218;BME280;3142;48.206;11.550;2023-04-24T13:03:08;94997.56;;;15.17;47.26
6218;BME280;3142;48.206;11.550;2023-04-24T13:05:34;95010.84;;;15.05;47.72
6218;BME280;3142;48.206;11.550;2023-04-24T13:08:01;95015.06;;;14.84;48.48
6218;BME280;3142;48.206;11.550;2023-04-24T13:10:27;95024.34;;;14.70;48.98
6218;BME280;3142;48.206;11.550;2023-04-24T13:12:54;95021.63;;;14.65;50.55
6218;BME280;3142;48.206;11.550;2023-04-24T13:15:22;95022.69;;;14.64;50.46